createdAt,value
2022-09-23T00:02:11.883Z,7.20
2022-09-23T00:05:15.069Z,6.97
2022-09-23T00:08:17.242Z,7.60
2022-09-23T00:11:25.347Z,8.80
2022-09-23T00:14:27.701Z,7.72
2022-09-23T00:17:31.710Z,7.07
2022-09-23T00:20:35.867Z,7.40
2022-09-23T00:23:41.689Z,6.55
2022-09-23T00:26:43.876Z,6.25
2022-09-23T00:29:46.088Z,6.60
2022-09-23T00:32:48.245Z,6.07
2022-09-23T00:35:50.409Z,7.45
2022-09-23T00:38:53.616Z,6.05
2022-09-23T00:41:56.068Z,7.68
2022-09-23T00:44:59.526Z,7.30
2022-09-23T00:48:02.774Z,8.00
2022-09-23T00:51:07.221Z,6.85
2022-09-23T00:54:09.858Z,7.55
2022-09-23T00:57:12.866Z,12.18
2022-09-23T01:00:15.361Z,11.25
2022-09-23T01:03:19.592Z,9.43
2022-09-23T01:06:21.775Z,9.65
2022-09-23T01:09:24.765Z,5.95
2022-09-23T01:12:43.167Z,7.75
2022-09-23T01:15:45.407Z,7.30
2022-09-23T01:18:59.676Z,7.62
2022-09-23T01:22:26.222Z,8.43
2022-09-23T01:25:40.876Z,7.60
2022-09-23T01:29:11.070Z,7.20
2022-09-23T01:32:33.283Z,9.60
2022-09-23T01:35:58.622Z,9.15
2022-09-23T01:39:10.789Z,12.37
2022-09-23T01:42:24.425Z,10.98
2022-09-23T01:45:48.069Z,8.50
2022-09-23T01:48:56.199Z,9.60
2022-09-23T01:52:07.791Z,9.32
2022-09-23T01:58:46.812Z,9.75
2022-09-23T02:01:57.695Z,7.62
2022-09-23T02:05:36.941Z,16.67
2022-09-23T02:08:52.204Z,7.32
2022-09-23T02:12:00.618Z,7.35
2022-09-23T02:15:07.390Z,8.75
2022-09-23T02:18:17.053Z,10.90
2022-09-23T02:21:20.010Z,8.75
2022-09-23T02:24:27.640Z,7.18
2022-09-23T02:27:40.815Z,8.15
2022-09-23T02:30:51.507Z,8.07
2022-09-23T02:34:31.499Z,7.97
2022-09-23T02:38:04.317Z,5.93
2022-09-23T02:41:26.389Z,8.68
2022-09-23T02:44:29.027Z,6.90
2022-09-23T02:47:34.456Z,9.85
2022-09-23T02:50:37.045Z,8.40
2022-09-23T02:53:40.134Z,14.27
2022-09-23T02:56:42.700Z,5.45
2022-09-23T02:59:46.815Z,10.73
2022-09-23T03:03:11.263Z,6.75
2022-09-23T03:06:47.609Z,7.22
2022-09-23T03:10:13.343Z,5.93
2022-09-23T03:13:38.542Z,7.22
2022-09-23T03:17:03.723Z,6.93
2022-09-23T03:20:26.992Z,7.53
2022-09-23T03:23:35.732Z,8.50
2022-09-23T03:26:39.771Z,7.43
2022-09-23T03:29:48.601Z,10.02
2022-09-23T03:32:51.548Z,8.65
2022-09-23T03:36:19.785Z,6.43
2022-09-23T03:39:31.191Z,6.47
2022-09-23T03:42:34.230Z,7.97
2022-09-23T03:45:36.593Z,9.48
2022-09-23T03:48:38.801Z,7.53
2022-09-23T03:51:44.529Z,7.60
2022-09-23T03:54:47.652Z,7.55
2022-09-23T03:57:49.837Z,9.07
2022-09-23T04:00:54.794Z,8.60
2022-09-23T04:03:57.027Z,8.18
2022-09-23T04:06:59.437Z,6.75
2022-09-23T04:10:01.771Z,8.52
2022-09-23T04:13:03.975Z,6.03
2022-09-23T04:16:06.450Z,8.25
2022-09-23T04:19:11.715Z,7.03
2022-09-23T04:22:14.164Z,12.37
2022-09-23T04:25:16.478Z,11.95
2022-09-23T04:28:18.659Z,6.87
2022-09-23T04:31:23.920Z,5.93
2022-09-23T04:34:26.256Z,7.45
2022-09-23T04:37:29.451Z,9.23
2022-09-23T04:40:31.669Z,9.80
2022-09-23T04:43:33.804Z,12.82
2022-09-23T04:46:35.994Z,20.60
2022-09-23T04:49:38.408Z,19.87
2022-09-23T04:52:40.541Z,18.75
2022-09-23T04:55:43.604Z,12.77
2022-09-23T04:58:46.491Z,15.63
2022-09-23T05:01:49.219Z,21.98
2022-09-23T05:04:51.575Z,21.67
2022-09-23T05:07:55.683Z,16.50
2022-09-23T05:10:59.051Z,12.25
2022-09-23T05:14:01.354Z,12.40
2022-09-23T05:17:03.538Z,13.23
2022-09-23T05:20:06.197Z,16.05
2022-09-23T05:23:08.392Z,15.27
2022-09-23T05:26:12.000Z,14.87
2022-09-23T05:29:14.155Z,12.77
2022-09-23T05:32:16.414Z,10.73
2022-09-23T05:35:18.557Z,13.98
2022-09-23T05:38:20.740Z,12.52
2022-09-23T05:41:23.736Z,13.40
2022-09-23T05:44:26.389Z,22.73
2022-09-23T05:47:28.578Z,14.50
2022-09-23T05:50:30.719Z,16.45
2022-09-23T05:53:32.848Z,7.15
2022-09-23T05:56:35.517Z,14.40
2022-09-23T05:59:38.091Z,7.07
2022-09-23T06:02:40.350Z,10.23
2022-09-23T06:05:42.595Z,6.15
2022-09-23T06:08:48.382Z,10.65
2022-09-23T06:11:50.979Z,7.70
2022-09-23T06:14:53.513Z,6.47
2022-09-23T06:17:55.671Z,11.15
2022-09-23T06:21:01.429Z,9.60
2022-09-23T06:24:04.151Z,4.55
2022-09-23T06:27:06.695Z,5.15
2022-09-23T06:30:09.375Z,3.95
2022-09-23T06:33:11.510Z,4.18
2022-09-23T06:36:26.499Z,6.90
2022-09-23T06:39:36.566Z,5.57
2022-09-23T06:42:38.959Z,19.75
2022-09-23T06:45:41.134Z,4.25
2022-09-23T06:48:46.186Z,3.65
2022-09-23T06:51:48.715Z,4.60
2022-09-23T06:54:51.125Z,4.93
2022-09-23T06:57:54.103Z,5.90
2022-09-23T07:01:04.488Z,5.70
2022-09-23T07:04:07.855Z,7.85
2022-09-23T07:07:11.518Z,7.78
2022-09-23T07:10:13.906Z,6.65
2022-09-23T07:13:16.473Z,5.57
2022-09-23T07:16:18.760Z,4.93
2022-09-23T07:19:20.929Z,4.70
2022-09-23T07:22:24.383Z,5.00
2022-09-23T07:25:26.595Z,4.87
2022-09-23T07:28:29.209Z,3.72
2022-09-23T07:31:39.252Z,4.25
2022-09-23T07:34:43.320Z,7.55
2022-09-23T07:37:46.173Z,6.78
2022-09-23T07:40:49.179Z,3.62
2022-09-23T07:43:55.607Z,3.25
2022-09-23T07:46:58.267Z,7.72
2022-09-23T07:50:00.431Z,4.22
2022-09-23T07:53:03.051Z,4.18
2022-09-23T07:56:06.444Z,4.57
2022-09-23T07:59:11.958Z,4.05
2022-09-23T08:02:16.496Z,4.82
2022-09-23T08:05:18.786Z,2.47
2022-09-23T08:08:20.977Z,3.33
2022-09-23T08:11:24.867Z,2.87
2022-09-23T08:14:27.532Z,3.15
2022-09-23T08:17:29.758Z,2.80
2022-09-23T08:20:47.102Z,2.87
2022-09-23T08:23:50.799Z,2.55
2022-09-23T08:26:54.409Z,2.45
2022-09-23T08:29:56.626Z,2.80
2022-09-23T08:32:58.906Z,2.40
2022-09-23T08:36:02.251Z,2.78
2022-09-23T08:39:05.100Z,3.17
2022-09-23T08:42:12.682Z,2.40
2022-09-23T08:45:21.829Z,2.97
2022-09-23T08:48:39.807Z,2.28
2022-09-23T08:51:48.743Z,10.88
2022-09-23T08:54:55.242Z,2.53
2022-09-23T08:58:30.871Z,2.92
2022-09-23T09:01:48.020Z,2.50
2022-09-23T09:04:54.919Z,4.10
2022-09-23T09:07:58.910Z,3.03
2022-09-23T09:11:01.286Z,3.33
2022-09-23T09:14:11.689Z,4.87
2022-09-23T09:17:33.007Z,3.90
2022-09-23T09:20:57.186Z,3.75
2022-09-23T09:24:00.342Z,5.60
2022-09-23T09:27:10.984Z,3.65
2022-09-23T09:30:16.420Z,2.70
2022-09-23T09:33:24.667Z,2.60
2022-09-23T09:36:47.260Z,4.28
2022-09-23T09:39:49.551Z,5.28
2022-09-23T09:42:51.723Z,2.75
2022-09-23T09:46:24.847Z,2.97
2022-09-23T09:49:40.151Z,3.67
2022-09-23T09:52:43.290Z,2.95
2022-09-23T09:55:46.183Z,2.12
2022-09-23T09:59:14.735Z,2.72
2022-09-23T10:02:30.039Z,7.30
2022-09-23T10:05:35.078Z,2.65
2022-09-23T10:08:37.425Z,2.45
2022-09-23T10:11:40.699Z,7.72
2022-09-23T10:14:43.618Z,2.17
2022-09-23T10:17:50.031Z,3.17
2022-09-23T10:20:52.363Z,2.08
2022-09-23T10:23:58.154Z,3.62
2022-09-23T10:27:04.329Z,2.65
2022-09-23T10:30:27.578Z,4.55
2022-09-23T10:33:31.380Z,2.62
2022-09-23T10:36:33.717Z,4.32
2022-09-23T10:39:54.460Z,3.70
2022-09-23T10:43:27.280Z,7.15
2022-09-23T10:46:42.116Z,1.90
2022-09-23T10:49:55.989Z,4.03
2022-09-23T10:53:31.394Z,3.22
2022-09-23T10:56:40.682Z,4.32
2022-09-23T10:59:48.999Z,3.37
2022-09-23T11:03:02.962Z,3.08
2022-09-23T11:06:37.046Z,2.10
2022-09-23T11:09:52.637Z,2.22
2022-09-23T11:13:15.912Z,2.45
2022-09-23T11:16:45.424Z,2.20
2022-09-23T11:20:06.382Z,1.52
2022-09-23T11:23:23.336Z,3.72
2022-09-23T11:27:04.988Z,4.72
2022-09-23T11:30:09.895Z,6.80
2022-09-23T11:33:25.177Z,3.47
2022-09-23T11:36:44.672Z,1.77
2022-09-23T11:39:57.401Z,1.85
2022-09-23T11:43:23.514Z,7.15
2022-09-23T11:46:38.818Z,1.77
2022-09-23T11:49:54.395Z,2.60
2022-09-23T11:53:24.364Z,2.40
2022-09-23T11:56:35.888Z,1.75
2022-09-23T11:59:43.354Z,2.33
2022-09-23T12:03:31.827Z,2.10
2022-09-23T12:06:41.592Z,1.77
2022-09-23T12:10:04.281Z,1.58
2022-09-23T12:13:40.700Z,1.65
2022-09-23T12:17:07.203Z,1.70
2022-09-23T12:20:28.496Z,2.67
2022-09-23T12:23:42.739Z,2.45
2022-09-23T12:26:51.303Z,3.20
2022-09-23T12:29:58.210Z,2.53
2022-09-23T12:33:17.641Z,1.98
2022-09-23T12:36:33.905Z,2.33
2022-09-23T12:39:38.640Z,3.83
2022-09-23T12:42:44.182Z,2.28
2022-09-23T12:45:48.137Z,2.90
2022-09-23T12:49:00.500Z,3.95
2022-09-23T12:52:17.675Z,5.22
2022-09-23T12:55:23.277Z,2.20
2022-09-23T12:58:38.506Z,2.17
2022-09-23T13:01:41.167Z,1.50
2022-09-23T13:05:10.639Z,3.97
2022-09-23T13:08:17.335Z,3.33
2022-09-23T13:11:21.919Z,3.40
2022-09-23T13:14:27.520Z,4.12
2022-09-23T13:17:36.560Z,3.75
2022-09-23T13:20:38.807Z,7.03
2022-09-23T13:24:31.207Z,2.15
2022-09-23T13:27:34.305Z,4.75
2022-09-23T13:30:36.534Z,2.50
2022-09-23T13:33:42.491Z,2.33
2022-09-23T13:36:46.074Z,3.65
2022-09-23T13:39:48.310Z,6.57
2022-09-23T13:42:59.256Z,3.25
2022-09-23T13:46:05.216Z,2.25
2022-09-23T13:49:21.189Z,2.90
2022-09-23T13:52:29.918Z,4.72
2022-09-23T13:55:37.375Z,3.25
2022-09-23T13:58:40.131Z,3.25
2022-09-23T14:01:42.275Z,3.47
2022-09-23T14:04:44.921Z,2.80
2022-09-23T14:07:56.468Z,8.20
2022-09-23T14:10:59.579Z,2.50
2022-09-23T14:14:07.173Z,3.47
2022-09-23T14:17:14.313Z,4.18
2022-09-23T14:20:17.798Z,2.60
2022-09-23T14:23:20.025Z,2.55
2022-09-23T14:26:23.558Z,3.90
2022-09-23T14:29:28.614Z,2.53
2022-09-23T14:32:31.192Z,5.53
2022-09-23T14:35:46.567Z,5.43
2022-09-23T14:38:51.618Z,5.45
2022-09-23T14:41:53.806Z,2.97
2022-09-23T14:44:56.071Z,2.08
2022-09-23T14:48:05.217Z,2.97
2022-09-23T14:51:10.924Z,4.22
2022-09-23T14:54:36.569Z,2.65
2022-09-23T14:57:38.981Z,1.87
2022-09-23T15:00:54.723Z,3.50
2022-09-23T15:03:58.715Z,2.20
2022-09-23T15:07:04.750Z,3.10
2022-09-23T15:10:09.740Z,3.85
2022-09-23T15:13:18.109Z,3.37
2022-09-23T15:16:26.660Z,3.78
2022-09-23T15:19:31.568Z,4.43
2022-09-23T15:22:43.325Z,2.80
2022-09-23T15:25:45.484Z,2.12
2022-09-23T15:28:49.103Z,2.25
2022-09-23T15:31:51.437Z,8.35
2022-09-23T15:34:53.655Z,2.58
2022-09-23T15:38:01.090Z,3.05
2022-09-23T15:41:04.032Z,2.87
2022-09-23T15:44:17.133Z,4.47
2022-09-23T15:47:21.539Z,2.92
2022-09-23T15:50:23.726Z,2.17
2022-09-23T15:53:28.421Z,2.05
2022-09-23T15:56:30.589Z,2.53
2022-09-23T15:59:33.049Z,2.47
2022-09-23T16:02:35.877Z,2.30
2022-09-23T16:05:39.609Z,2.72
2022-09-23T16:08:42.359Z,2.50
2022-09-23T16:11:49.339Z,2.78
2022-09-23T16:14:51.545Z,4.62
2022-09-23T16:17:54.696Z,4.30
2022-09-23T16:20:59.034Z,3.15
2022-09-23T16:24:01.638Z,3.65
2022-09-23T16:27:07.848Z,2.20
2022-09-23T16:30:10.940Z,3.20
2022-09-23T16:33:13.077Z,4.35
2022-09-23T16:36:53.914Z,2.72
2022-09-23T16:39:56.103Z,3.60
2022-09-23T16:42:58.468Z,3.30
2022-09-23T16:46:01.106Z,3.85
2022-09-23T16:49:03.641Z,3.62
2022-09-23T16:52:05.884Z,3.85
2022-09-23T16:55:10.481Z,3.70
2022-09-23T16:58:12.674Z,4.07
2022-09-23T17:01:40.337Z,8.20
2022-09-23T17:04:42.568Z,9.35
2022-09-23T17:07:44.925Z,14.77
2022-09-23T17:10:55.629Z,18.77
2022-09-23T17:13:58.807Z,26.30
2022-09-23T17:17:01.306Z,29.70
2022-09-23T17:20:05.815Z,28.42
2022-09-23T17:23:08.331Z,29.92
2022-09-23T17:26:12.434Z,35.75
2022-09-23T17:29:15.776Z,41.00
2022-09-23T17:32:18.017Z,41.10
2022-09-23T17:35:20.249Z,42.22
2022-09-23T17:38:28.020Z,31.00
2022-09-23T17:41:31.173Z,22.83
2022-09-23T17:44:33.962Z,30.20
2022-09-23T17:47:41.323Z,27.45
2022-09-23T17:50:43.955Z,21.98
2022-09-23T17:53:47.825Z,21.67
2022-09-23T17:56:50.000Z,24.37
2022-09-23T17:59:53.733Z,30.17
2022-09-23T18:02:55.934Z,21.90
2022-09-23T18:06:18.169Z,18.95
2022-09-23T18:09:20.495Z,24.75
2022-09-23T18:12:22.717Z,25.12
2022-09-23T18:15:24.881Z,24.85
2022-09-23T18:18:27.079Z,21.77
2022-09-23T18:21:35.339Z,21.77
2022-09-23T18:24:41.069Z,24.48
2022-09-23T18:27:43.252Z,26.17
2022-09-23T18:30:55.789Z,24.45
2022-09-23T18:33:58.187Z,24.23
2022-09-23T18:37:00.403Z,26.87
2022-09-23T18:40:04.395Z,30.23
2022-09-23T18:43:06.689Z,28.80
2022-09-23T18:46:15.177Z,28.33
2022-09-23T18:49:36.550Z,30.77
2022-09-23T18:52:38.742Z,23.52
2022-09-23T18:55:40.977Z,22.05
2022-09-23T18:58:50.620Z,19.58
2022-09-23T19:01:55.485Z,21.12
2022-09-23T19:04:57.843Z,21.98
2022-09-23T19:08:00.045Z,27.90
2022-09-23T19:11:04.508Z,28.48
2022-09-23T19:14:10.872Z,28.12
2022-09-23T19:17:13.485Z,22.00
2022-09-23T19:20:15.755Z,22.87
2022-09-23T19:23:21.912Z,20.80
2022-09-23T19:26:31.614Z,19.42
2022-09-23T19:29:33.800Z,19.42
2022-09-23T19:32:35.943Z,28.60
2022-09-23T19:35:51.882Z,14.95
2022-09-23T19:38:58.523Z,17.35
2022-09-23T19:42:01.711Z,21.35
2022-09-23T19:45:04.109Z,20.77
2022-09-23T19:48:09.097Z,19.33
2022-09-23T19:51:11.327Z,18.85
2022-09-23T19:54:20.591Z,19.73
2022-09-23T19:57:23.017Z,18.52
2022-09-23T20:00:25.617Z,18.17
2022-09-23T20:03:27.819Z,27.77
2022-09-23T20:06:34.464Z,20.88
2022-09-23T20:09:36.624Z,13.25
2022-09-23T20:12:41.232Z,14.40
2022-09-23T20:15:46.666Z,12.05
2022-09-23T20:18:52.221Z,13.62
2022-09-23T20:22:14.330Z,18.23
2022-09-23T20:25:16.529Z,23.65
2022-09-23T20:28:22.395Z,28.58
2022-09-23T20:31:25.112Z,22.20
2022-09-23T20:34:33.673Z,21.50
2022-09-23T20:37:35.875Z,22.52
2022-09-23T20:40:38.556Z,19.70
2022-09-23T20:43:40.817Z,19.65
2022-09-23T20:46:48.353Z,17.33
2022-09-23T20:49:50.962Z,19.00
2022-09-23T20:52:53.263Z,21.45
2022-09-23T20:55:56.802Z,19.30
2022-09-23T20:59:00.195Z,16.30
2022-09-23T21:02:03.221Z,20.73
2022-09-23T21:05:05.936Z,17.30
2022-09-23T21:08:08.558Z,20.30
2022-09-23T21:11:12.752Z,19.83
2022-09-23T21:14:15.889Z,23.62
2022-09-23T21:17:18.210Z,23.27
2022-09-23T21:20:20.363Z,21.85
2022-09-23T21:23:27.208Z,32.47
2022-09-23T21:26:29.589Z,31.08
2022-09-23T21:29:31.811Z,29.20
2022-09-23T21:32:34.010Z,23.17
2022-09-23T21:35:36.162Z,23.00
2022-09-23T21:38:38.588Z,32.35
2022-09-23T21:41:40.844Z,28.75
2022-09-23T21:44:42.975Z,19.95
2022-09-23T21:47:45.111Z,23.77
2022-09-23T21:50:54.543Z,26.20
2022-09-23T21:53:58.055Z,27.15
2022-09-23T21:57:00.541Z,26.80
2022-09-23T22:00:02.993Z,18.62
2022-09-23T22:03:05.185Z,17.37
2022-09-23T22:06:13.343Z,14.95
2022-09-23T22:09:18.495Z,12.65
2022-09-23T22:12:20.624Z,15.32
2022-09-23T22:15:23.521Z,15.00
2022-09-23T22:18:25.673Z,17.98
2022-09-23T22:21:29.699Z,13.50
2022-09-23T22:24:31.857Z,12.52
2022-09-23T22:27:53.969Z,13.23
2022-09-23T22:31:16.311Z,14.85
2022-09-23T22:34:47.562Z,15.02
2022-09-23T22:37:42.686Z,14.55
2022-09-23T22:40:45.087Z,13.98
2022-09-23T22:43:47.372Z,13.68
2022-09-23T22:46:49.606Z,13.32
2022-09-23T22:49:55.450Z,12.55
2022-09-23T22:52:57.786Z,11.85
2022-09-23T22:56:02.780Z,11.30
2022-09-23T22:59:06.274Z,11.65
2022-09-23T23:02:08.493Z,10.50
2022-09-23T23:05:11.045Z,14.18
2022-09-23T23:08:15.745Z,13.18
2022-09-23T23:11:17.864Z,11.85
2022-09-23T23:14:20.084Z,10.82
2022-09-23T23:17:22.261Z,14.15
2022-09-23T23:20:24.482Z,11.77
2022-09-23T23:23:26.649Z,13.57
2022-09-23T23:26:29.065Z,14.45
2022-09-23T23:29:31.275Z,16.35
2022-09-23T23:32:33.464Z,16.25
2022-09-23T23:35:35.630Z,14.23
2022-09-23T23:38:38.986Z,14.18
2022-09-23T23:41:41.685Z,14.38
2022-09-23T23:44:44.394Z,11.23
2022-09-23T23:47:46.551Z,14.48
2022-09-23T23:50:56.123Z,12.82
2022-09-23T23:53:59.667Z,12.45
2022-09-23T23:57:01.784Z,10.30
